Time;durP1;ratioP1;P1;durP2;ratioP2;P2;SDS_P1;SDS_P2;PMS_P1;PMS_P2;Temp;Humidity;BMP_temperature;BMP_pressure;BME280_temperature;BME280_humidity;BME280_pressure;Samples;Min_cycle;Max_cycle;Signal;HPM_P1;HPM_P2
2022/05/31 00:00:35;;;;;;;8.90;6.77;;;;;;;;;;10519787;28;20404;-84
2022/05/31 00:05:37;;;;;;;8.32;6.68;;;;;;;;;;10520346;28;20412;-85
2022/05/31 00:10:39;;;;;;;7.33;6.20;;;;;;;;;;10531825;28;20776;-84
2022/05/31 00:15:42;;;;;;;7.35;6.20;;;;;;;;;;10525235;28;20431;-85
2022/05/31 00:20:44;;;;;;;8.20;6.30;;;;;;;;;;10522750;28;20427;-85
2022/05/31 00:25:46;;;;;;;8.05;6.20;;;;;;;;;;10521886;28;20403;-85
2022/05/31 00:30:49;;;;;;;7.85;6.55;;;;;;;;;;10518176;28;20420;-85
2022/05/31 00:35:51;;;;;;;8.02;6.25;;;;;;;;;;10522761;28;20407;-85
2022/05/31 00:40:53;;;;;;;7.77;6.70;;;;;;;;;;10522169;28;20540;-85
2022/05/31 00:46:16;;;;;;;9.20;6.70;;;;;;;;;;10519230;28;20388;-85
2022/05/31 00:51:20;;;;;;;9.93;6.50;;;;;;;;;;10511223;28;20426;-86
2022/05/31 00:56:26;;;;;;;9.43;6.73;;;;;;;;;;10521213;28;20526;-86
2022/05/31 01:01:31;;;;;;;8.57;7.60;;;;;;;;;;10521127;28;20400;-85
2022/05/31 01:06:34;;;;;;;9.30;8.30;;;;;;;;;;10519301;28;20744;-85
2022/05/31 01:11:39;;;;;;;9.85;8.85;;;;;;;;;;10520865;28;20978;-85
2022/05/31 01:16:57;;;;;;;10.25;8.43;;;;;;;;;;10518956;28;20412;-85
2022/05/31 01:22:00;;;;;;;11.60;8.77;;;;;;;;;;10519756;28;20958;-84
2022/05/31 01:27:09;;;;;;;10.30;9.00;;;;;;;;;;10519508;28;20411;-84
2022/05/31 01:32:12;;;;;;;11.80;9.43;;;;;;;;;;10518771;28;20894;-85
2022/05/31 01:37:15;;;;;;;11.57;9.13;;;;;;;;;;10521119;28;20419;-84
2022/05/31 01:42:20;;;;;;;10.80;9.00;;;;;;;;;;10519501;28;20428;-85
2022/05/31 01:47:22;;;;;;;9.98;8.73;;;;;;;;;;10518493;28;20499;-84
2022/05/31 01:52:26;;;;;;;10.20;8.35;;;;;;;;;;10520256;28;20417;-85
2022/05/31 01:57:29;;;;;;;12.23;8.97;;;;;;;;;;10520467;28;20404;-84
2022/05/31 02:02:31;;;;;;;10.87;9.10;;;;;;;;;;10520483;28;20487;-84
2022/05/31 02:07:35;;;;;;;9.18;8.23;;;;;;;;;;10521749;28;20400;-85
2022/05/31 02:12:37;;;;;;;11.00;9.00;;;;;;;;;;10520236;28;20436;-85
2022/05/31 02:17:39;;;;;;;11.00;8.60;;;;;;;;;;10520241;28;20405;-84
2022/05/31 02:22:42;;;;;;;9.27;8.03;;;;;;;;;;10521422;28;20899;-84
2022/05/31 02:27:45;;;;;;;10.30;8.13;;;;;;;;;;10523427;28;20435;-84
2022/05/31 02:32:46;;;;;;;11.20;8.18;;;;;;;;;;10527380;28;20421;-84
2022/05/31 02:37:50;;;;;;;8.93;7.97;;;;;;;;;;10527047;28;20404;-86
2022/05/31 02:42:51;;;;;;;9.65;7.95;;;;;;;;;;10515661;28;20483;-84
2022/05/31 02:47:53;;;;;;;11.50;8.23;;;;;;;;;;10527892;28;20408;-84
2022/05/31 02:52:56;;;;;;;11.90;8.55;;;;;;;;;;10528803;28;20416;-85
2022/05/31 02:57:58;;;;;;;10.00;8.43;;;;;;;;;;10527688;28;20499;-84
2022/05/31 03:03:00;;;;;;;10.90;8.25;;;;;;;;;;10527415;28;20404;-86
2022/05/31 03:08:03;;;;;;;10.07;8.73;;;;;;;;;;10527500;28;20483;-84
2022/05/31 03:13:07;;;;;;;9.30;8.30;;;;;;;;;;10526740;28;20420;-85
2022/05/31 03:18:13;;;;;;;10.07;8.67;;;;;;;;;;10527136;28;20508;-85
2022/05/31 03:23:19;;;;;;;9.95;8.43;;;;;;;;;;10527034;28;20936;-83
2022/05/31 03:28:22;;;;;;;11.70;8.73;;;;;;;;;;10526334;28;20439;-85
2022/05/31 03:33:24;;;;;;;11.07;9.00;;;;;;;;;;10522392;28;20420;-85
2022/05/31 03:38:27;;;;;;;9.82;8.35;;;;;;;;;;10523277;28;20410;-85
2022/05/31 03:43:32;;;;;;;9.85;8.90;;;;;;;;;;10535163;28;20504;-84
2022/05/31 03:48:33;;;;;;;10.30;9.20;;;;;;;;;;10522503;28;20427;-84
2022/05/31 03:53:37;;;;;;;10.63;8.77;;;;;;;;;;10526011;28;20519;-85
2022/05/31 03:58:40;;;;;;;11.05;9.52;;;;;;;;;;10524605;28;20745;-84
2022/05/31 04:03:42;;;;;;;9.88;8.80;;;;;;;;;;10521851;28;20418;-85
2022/05/31 04:08:46;;;;;;;10.18;9.10;;;;;;;;;;10517058;28;20423;-85
2022/05/31 04:13:47;;;;;;;10.03;8.40;;;;;;;;;;10517762;28;20416;-85
2022/05/31 04:18:50;;;;;;;9.90;8.35;;;;;;;;;;10520944;28;20396;-85
2022/05/31 04:23:59;;;;;;;10.00;8.30;;;;;;;;;;10522461;28;20392;-85
2022/05/31 04:29:00;;;;;;;10.30;8.60;;;;;;;;;;10520273;28;20553;-85
2022/05/31 04:34:04;;;;;;;9.53;8.53;;;;;;;;;;10521603;28;20463;-87
2022/05/31 04:39:08;;;;;;;9.10;8.18;;;;;;;;;;10518270;28;20521;-88
2022/05/31 04:44:11;;;;;;;9.70;8.63;;;;;;;;;;10521950;28;20397;-88
2022/05/31 04:49:13;;;;;;;9.30;7.97;;;;;;;;;;10508841;28;20834;-85
2022/05/31 04:54:17;;;;;;;10.50;8.35;;;;;;;;;;10517117;28;20423;-87
2022/05/31 04:59:20;;;;;;;9.83;7.93;;;;;;;;;;10517901;28;20410;-87
2022/05/31 05:04:21;;;;;;;9.60;7.90;;;;;;;;;;10518605;28;20411;-86
2022/05/31 05:09:25;;;;;;;10.43;7.80;;;;;;;;;;10516639;28;21299;-86
2022/05/31 05:14:26;;;;;;;8.32;7.13;;;;;;;;;;10514281;28;20400;-86
2022/05/31 05:19:28;;;;;;;7.93;7.03;;;;;;;;;;10504857;28;20422;-86
2022/05/31 05:24:32;;;;;;;7.40;6.03;;;;;;;;;;10514010;28;20404;-86
2022/05/31 05:34:54;;;;;;;7.10;5.90;;;;;;;;;;10500884;28;20421;-88
2022/05/31 05:39:58;;;;;;;7.17;5.70;;;;;;;;;;10504449;28;20884;-90
2022/05/31 05:45:00;;;;;;;9.25;6.22;;;;;;;;;;10523579;28;20408;-90
2022/05/31 05:50:02;;;;;;;7.55;5.38;;;;;;;;;;10513470;28;20420;-88
2022/05/31 05:55:07;;;;;;;7.70;5.45;;;;;;;;;;10519287;28;20415;-89
2022/05/31 06:00:10;;;;;;;9.83;5.73;;;;;;;;;;10519290;28;20407;-90
2022/05/31 06:05:15;;;;;;;5.55;5.00;;;;;;;;;;10529117;28;20404;-89
2022/05/31 06:10:21;;;;;;;8.37;5.40;;;;;;;;;;10531447;28;20428;-88
2022/05/31 06:15:27;;;;;;;6.45;5.07;;;;;;;;;;10531197;28;20416;-89
2022/05/31 06:20:30;;;;;;;7.90;5.40;;;;;;;;;;10532000;28;20582;-89
2022/05/31 06:25:33;;;;;;;7.53;5.03;;;;;;;;;;10531894;28;20411;-89
2022/05/31 06:30:36;;;;;;;6.40;4.93;;;;;;;;;;10535630;28;20416;-89
2022/05/31 06:35:38;;;;;;;5.90;5.30;;;;;;;;;;10531830;28;20400;-89
2022/05/31 06:40:42;;;;;;;6.30;5.47;;;;;;;;;;10522278;28;20404;-89
2022/05/31 06:45:43;;;;;;;5.47;4.77;;;;;;;;;;10513706;28;20404;-90
2022/05/31 06:50:45;;;;;;;6.03;4.90;;;;;;;;;;10530658;28;20416;-90
2022/05/31 07:01:07;;;;;;;4.10;3.40;;;;;;;;;;10527938;28;20459;-90
2022/05/31 07:06:09;;;;;;;4.18;3.50;;;;;;;;;;10530464;28;20479;-91
2022/05/31 07:11:13;;;;;;;3.60;2.92;;;;;;;;;;10530189;28;20413;-89
2022/05/31 07:16:15;;;;;;;3.25;2.95;;;;;;;;;;10529722;28;20414;-89
2022/05/31 07:21:17;;;;;;;3.43;2.57;;;;;;;;;;10530433;28;20482;-91
2022/05/31 07:26:21;;;;;;;2.93;2.60;;;;;;;;;;10530189;28;20487;-89
2022/05/31 07:31:23;;;;;;;4.15;2.83;;;;;;;;;;10529989;28;20416;-88
2022/05/31 07:36:24;;;;;;;3.72;2.75;;;;;;;;;;10530895;28;20403;-89
2022/05/31 07:41:28;;;;;;;2.33;2.10;;;;;;;;;;10533024;28;20405;-90
2022/05/31 07:46:30;;;;;;;5.13;3.10;;;;;;;;;;10559912;28;20479;-90
2022/05/31 07:51:33;;;;;;;3.58;3.28;;;;;;;;;;10558144;28;20428;-89
2022/05/31 07:56:36;;;;;;;3.30;2.57;;;;;;;;;;10523313;28;20401;-89
2022/05/31 08:01:39;;;;;;;3.33;2.88;;;;;;;;;;10527045;28;20418;-90
2022/05/31 08:06:41;;;;;;;4.60;3.17;;;;;;;;;;10527687;28;20396;-89
2022/05/31 08:11:45;;;;;;;5.75;3.42;;;;;;;;;;10523411;28;20764;-89
2022/05/31 08:16:47;;;;;;;3.23;2.93;;;;;;;;;;10526316;28;20416;-89
2022/05/31 08:21:48;;;;;;;4.47;2.70;;;;;;;;;;10527266;28;20402;-87
2022/05/31 08:26:52;;;;;;;2.97;2.08;;;;;;;;;;10526614;28;20840;-89
2022/05/31 08:31:54;;;;;;;2.90;2.50;;;;;;;;;;10526757;28;20434;-90
2022/05/31 08:36:56;;;;;;;2.93;2.63;;;;;;;;;;10528360;28;20431;-88
2022/05/31 08:42:05;;;;;;;3.08;2.80;;;;;;;;;;10526193;28;20407;-89
2022/05/31 08:47:18;;;;;;;2.67;1.90;;;;;;;;;;10528567;28;20401;-89
2022/05/31 08:52:26;;;;;;;2.88;2.58;;;;;;;;;;10525282;28;20416;-89
2022/05/31 08:57:35;;;;;;;4.07;3.53;;;;;;;;;;10521307;28;20487;-89
2022/05/31 09:02:47;;;;;;;4.10;3.05;;;;;;;;;;10520373;28;20982;-88
2022/05/31 09:07:53;;;;;;;2.95;2.53;;;;;;;;;;10523839;28;20892;-89
2022/05/31 09:13:02;;;;;;;2.97;2.30;;;;;;;;;;10524400;28;20428;-89
2022/05/31 09:18:10;;;;;;;2.15;1.60;;;;;;;;;;10523976;28;20491;-89
2022/05/31 09:23:18;;;;;;;4.07;2.20;;;;;;;;;;10520165;28;20479;-88
2022/05/31 09:28:31;;;;;;;3.33;2.10;;;;;;;;;;10522662;28;20771;-87
2022/05/31 09:33:36;;;;;;;2.60;2.33;;;;;;;;;;10523301;28;20431;-89
2022/05/31 09:39:07;;;;;;;3.33;2.97;;;;;;;;;;10516086;28;20414;-89
2022/05/31 09:44:19;;;;;;;4.50;3.22;;;;;;;;;;10524662;28;20817;-89
2022/05/31 09:49:32;;;;;;;4.77;3.40;;;;;;;;;;10522987;28;20415;-89
2022/05/31 10:00:29;;;;;;;3.55;3.05;;;;;;;;;;10522777;28;20400;-88
2022/05/31 10:05:31;;;;;;;4.72;3.70;;;;;;;;;;10523405;28;20487;-88
2022/05/31 10:10:36;;;;;;;4.03;2.90;;;;;;;;;;10523610;28;20483;-90
2022/05/31 10:15:50;;;;;;;5.10;3.70;;;;;;;;;;10517684;28;20408;-89
2022/05/31 10:20:54;;;;;;;5.03;3.63;;;;;;;;;;10522811;28;20407;-88
2022/05/31 10:25:58;;;;;;;5.65;3.83;;;;;;;;;;10521773;28;20406;-89
2022/05/31 10:31:07;;;;;;;4.50;3.95;;;;;;;;;;10520876;28;20412;-88
2022/05/31 10:36:16;;;;;;;4.70;4.28;;;;;;;;;;10514137;28;20400;-88
2022/05/31 10:41:25;;;;;;;4.50;4.07;;;;;;;;;;10522037;28;20400;-89
2022/05/31 10:46:30;;;;;;;5.53;3.95;;;;;;;;;;10519470;28;20461;-89
2022/05/31 10:51:57;;;;;;;4.10;3.70;;;;;;;;;;10528336;28;20416;-88
2022/05/31 10:57:10;;;;;;;4.53;3.30;;;;;;;;;;10528508;28;20396;-88
2022/05/31 11:02:41;;;;;;;4.60;3.60;;;;;;;;;;10529005;28;20414;-88
2022/05/31 11:13:21;;;;;;;4.32;3.08;;;;;;;;;;10518435;28;20443;-89
2022/05/31 11:18:52;;;;;;;4.90;3.53;;;;;;;;;;10516368;28;20551;-89
2022/05/31 11:24:07;;;;;;;4.68;2.97;;;;;;;;;;10518448;28;20412;-88
2022/05/31 11:29:39;;;;;;;5.50;2.65;;;;;;;;;;10519110;28;20770;-88
2022/05/31 11:35:03;;;;;;;2.90;2.47;;;;;;;;;;10512199;28;20662;-90
2022/05/31 11:40:21;;;;;;;4.63;3.40;;;;;;;;;;10513214;28;20414;-87
2022/05/31 11:45:30;;;;;;;3.60;2.60;;;;;;;;;;10506230;28;20499;-87
2022/05/31 11:50:45;;;;;;;4.32;3.30;;;;;;;;;;10500013;28;20412;-86
2022/05/31 11:55:54;;;;;;;5.00;3.33;;;;;;;;;;10508814;28;20894;-86
2022/05/31 12:01:05;;;;;;;7.03;4.00;;;;;;;;;;10516434;28;20444;-91
2022/05/31 12:06:15;;;;;;;4.35;3.30;;;;;;;;;;10519745;28;20817;-89
2022/05/31 12:11:24;;;;;;;3.97;2.70;;;;;;;;;;10519193;28;20412;-89
2022/05/31 12:16:28;;;;;;;4.22;3.72;;;;;;;;;;10518322;28;20483;-87
2022/05/31 12:21:40;;;;;;;5.00;3.38;;;;;;;;;;10525141;28;20447;-90
2022/05/31 12:26:51;;;;;;;4.68;3.42;;;;;;;;;;10524104;28;21025;-89
2022/05/31 12:32:29;;;;;;;5.10;3.22;;;;;;;;;;10522659;28;20460;-90
2022/05/31 12:37:52;;;;;;;5.15;3.58;;;;;;;;;;10522519;28;20474;-89
2022/05/31 12:42:55;;;;;;;3.90;3.10;;;;;;;;;;10521962;28;20400;-91
2022/05/31 12:47:59;;;;;;;4.50;2.95;;;;;;;;;;10522288;28;20457;-90
2022/05/31 12:53:23;;;;;;;4.28;3.88;;;;;;;;;;10537330;28;20457;-91
2022/05/31 12:58:49;;;;;;;5.07;3.10;;;;;;;;;;10510679;28;20419;-89
2022/05/31 13:04:07;;;;;;;3.88;2.95;;;;;;;;;;10511402;28;20411;-88
2022/05/31 13:09:32;;;;;;;5.50;3.15;;;;;;;;;;10508121;28;20456;-83
2022/05/31 13:20:01;;;;;;;7.22;3.42;;;;;;;;;;10511509;28;20468;-84
2022/05/31 13:25:16;;;;;;;5.38;3.80;;;;;;;;;;10510803;28;20392;-82
2022/05/31 13:30:23;;;;;;;6.20;3.65;;;;;;;;;;10509614;28;20422;-81
2022/05/31 13:35:32;;;;;;;4.05;3.28;;;;;;;;;;10506368;28;20903;-81
2022/05/31 13:40:38;;;;;;;5.95;3.05;;;;;;;;;;10506445;28;20426;-82
2022/05/31 13:45:40;;;;;;;4.28;2.60;;;;;;;;;;10505083;28;20411;-83
2022/05/31 13:50:55;;;;;;;5.57;2.90;;;;;;;;;;10502778;28;20404;-84
2022/05/31 13:56:01;;;;;;;4.78;3.20;;;;;;;;;;10515352;28;20562;-83
2022/05/31 14:01:06;;;;;;;5.23;3.13;;;;;;;;;;10509605;28;20440;-83
2022/05/31 14:06:11;;;;;;;3.00;2.70;;;;;;;;;;10521998;28;20427;-83
2022/05/31 14:11:19;;;;;;;3.38;3.08;;;;;;;;;;10508759;28;20760;-84
2022/05/31 14:16:33;;;;;;;4.20;3.05;;;;;;;;;;10515989;28;20412;-85
2022/05/31 14:21:42;;;;;;;5.05;3.30;;;;;;;;;;10514372;28;20398;-84
2022/05/31 14:26:49;;;;;;;4.53;3.00;;;;;;;;;;10523250;28;20405;-83
2022/05/31 14:32:13;;;;;;;5.85;3.10;;;;;;;;;;10527837;28;20416;-88
2022/05/31 14:37:33;;;;;;;5.35;3.30;;;;;;;;;;10520767;28;20890;-89
2022/05/31 14:42:40;;;;;;;3.60;3.30;;;;;;;;;;10528220;28;20451;-89
2022/05/31 14:47:42;;;;;;;4.25;2.92;;;;;;;;;;10517117;28;20415;-88
2022/05/31 14:52:49;;;;;;;6.35;5.10;;;;;;;;;;10518190;28;20427;-88
2022/05/31 15:03:35;;;;;;;5.88;4.70;;;;;;;;;;10521071;28;20426;-89
2022/05/31 15:08:44;;;;;;;5.40;4.50;;;;;;;;;;10517537;28;21121;-88
2022/05/31 15:19:30;;;;;;;6.95;4.38;;;;;;;;;;10514444;28;20394;-91
2022/05/31 15:24:42;;;;;;;5.70;4.47;;;;;;;;;;10522540;28;20434;-88
2022/05/31 15:29:56;;;;;;;6.97;4.38;;;;;;;;;;10529180;28;20840;-91
2022/05/31 15:34:59;;;;;;;8.23;4.60;;;;;;;;;;10525690;28;20767;-92
2022/05/31 15:40:03;;;;;;;6.32;4.22;;;;;;;;;;10524845;28;20400;-89
2022/05/31 15:45:11;;;;;;;8.90;5.20;;;;;;;;;;10522566;28;20407;-92
2022/05/31 15:50:13;;;;;;;9.30;5.60;;;;;;;;;;10525430;28;20419;-93
2022/05/31 15:55:18;;;;;;;5.65;4.45;;;;;;;;;;10515845;28;20416;-91
2022/05/31 16:00:23;;;;;;;8.65;4.60;;;;;;;;;;10524332;28;20404;-92
2022/05/31 16:05:26;;;;;;;7.35;4.53;;;;;;;;;;10529970;28;20396;-93
2022/05/31 16:10:28;;;;;;;7.37;5.20;;;;;;;;;;10528851;28;20421;-93
2022/05/31 16:15:31;;;;;;;8.40;4.80;;;;;;;;;;10529573;28;20455;-92
2022/05/31 16:20:33;;;;;;;6.45;4.80;;;;;;;;;;10525248;28;20760;-92
2022/05/31 16:25:37;;;;;;;5.40;4.20;;;;;;;;;;10530342;28;20435;-91
2022/05/31 16:30:46;;;;;;;6.45;5.05;;;;;;;;;;10538253;28;20400;-91
2022/05/31 16:35:51;;;;;;;6.00;4.70;;;;;;;;;;10523625;28;20884;-91
2022/05/31 16:46:16;;;;;;;9.20;4.90;;;;;;;;;;10518426;28;20388;-90
2022/05/31 16:51:28;;;;;;;7.15;4.63;;;;;;;;;;10530253;28;20400;-94
2022/05/31 16:56:34;;;;;;;7.28;4.40;;;;;;;;;;10525173;28;20423;-91
2022/05/31 17:01:38;;;;;;;7.43;4.87;;;;;;;;;;10525798;28;20411;-90
2022/05/31 17:17:20;;;;;;;7.07;4.43;;;;;;;;;;10522419;28;20463;-91
2022/05/31 17:22:22;;;;;;;7.05;4.68;;;;;;;;;;10523465;28;20407;-91
2022/05/31 17:27:25;;;;;;;6.85;4.32;;;;;;;;;;10523088;28;20486;-90
2022/05/31 17:32:31;;;;;;;6.63;4.60;;;;;;;;;;10518630;28;20495;-90
2022/05/31 17:37:33;;;;;;;6.63;3.88;;;;;;;;;;10520032;28;20420;-93
2022/05/31 17:42:35;;;;;;;6.18;4.07;;;;;;;;;;10513789;28;20404;-89
2022/05/31 17:47:38;;;;;;;5.47;4.35;;;;;;;;;;10522591;28;20404;-91
2022/05/31 17:52:40;;;;;;;6.73;3.80;;;;;;;;;;10514787;28;20791;-90
2022/05/31 17:57:42;;;;;;;7.70;4.23;;;;;;;;;;10521418;28;20410;-91
2022/05/31 18:02:46;;;;;;;6.63;4.10;;;;;;;;;;10528597;28;20423;-92
2022/05/31 18:07:48;;;;;;;5.28;3.83;;;;;;;;;;10533921;28;20420;-91
2022/05/31 18:12:50;;;;;;;6.10;3.50;;;;;;;;;;10532525;28;20501;-90
2022/05/31 18:17:53;;;;;;;7.78;4.32;;;;;;;;;;10528759;28;20426;-89
2022/05/31 18:22:56;;;;;;;7.15;3.83;;;;;;;;;;10526144;28;20396;-88
2022/05/31 18:33:16;;;;;;;4.47;3.63;;;;;;;;;;10527088;28;20425;-91
2022/05/31 18:38:43;;;;;;;6.05;4.20;;;;;;;;;;10529306;28;20853;-90
2022/05/31 18:43:46;;;;;;;5.68;3.70;;;;;;;;;;10525340;28;20418;-90
2022/05/31 18:48:50;;;;;;;6.65;3.92;;;;;;;;;;10530816;28;20515;-90
2022/05/31 18:53:52;;;;;;;4.65;3.70;;;;;;;;;;10524558;28;20420;-90
2022/05/31 18:58:54;;;;;;;5.77;4.27;;;;;;;;;;10534019;28;20408;-91
2022/05/31 19:03:58;;;;;;;5.72;3.85;;;;;;;;;;10534128;28;20446;-92
2022/05/31 19:09:02;;;;;;;7.35;4.30;;;;;;;;;;10530243;28;20420;-91
2022/05/31 19:14:04;;;;;;;4.90;4.40;;;;;;;;;;10552844;28;20410;-91
2022/05/31 19:19:08;;;;;;;6.47;3.83;;;;;;;;;;10552209;28;20423;-88
2022/05/31 19:24:11;;;;;;;6.30;4.30;;;;;;;;;;10526934;28;20968;-92
2022/05/31 19:29:12;;;;;;;6.60;4.43;;;;;;;;;;10526840;28;20412;-91
2022/05/31 19:34:24;;;;;;;8.50;4.40;;;;;;;;;;10525902;28;20775;-90
2022/05/31 19:39:26;;;;;;;8.68;4.63;;;;;;;;;;10516443;28;20416;-88
2022/05/31 19:44:29;;;;;;;7.65;5.00;;;;;;;;;;10519567;28;20404;-88
2022/05/31 19:49:34;;;;;;;7.95;5.47;;;;;;;;;;10520831;28;20400;-89
2022/05/31 19:54:36;;;;;;;6.77;5.23;;;;;;;;;;10518129;28;20807;-88
2022/05/31 19:59:39;;;;;;;8.80;5.10;;;;;;;;;;10520304;28;20847;-87
2022/05/31 20:04:43;;;;;;;10.05;5.30;;;;;;;;;;10520613;28;20408;-88
2022/05/31 20:15:02;;;;;;;11.47;6.10;;;;;;;;;;10517877;28;20530;-87
2022/05/31 20:20:08;;;;;;;6.57;5.80;;;;;;;;;;10515938;28;20880;-88
2022/05/31 20:25:13;;;;;;;12.98;6.07;;;;;;;;;;10519922;28;20427;-89
2022/05/31 20:30:18;;;;;;;10.95;6.03;;;;;;;;;;10516820;28;20485;-88
2022/05/31 20:35:24;;;;;;;8.90;6.22;;;;;;;;;;10520822;28;20903;-87
2022/05/31 20:40:26;;;;;;;7.93;5.70;;;;;;;;;;10513686;28;20545;-87
2022/05/31 20:45:28;;;;;;;7.85;5.95;;;;;;;;;;10510223;28;20426;-89
2022/05/31 20:50:31;;;;;;;9.40;6.10;;;;;;;;;;10515390;28;20434;-87
2022/05/31 20:55:33;;;;;;;8.15;5.80;;;;;;;;;;10516338;28;20501;-87
2022/05/31 21:00:37;;;;;;;10.52;5.95;;;;;;;;;;10511567;28;20448;-88
2022/05/31 21:05:41;;;;;;;8.48;5.57;;;;;;;;;;10515210;28;20404;-87
2022/05/31 21:10:44;;;;;;;8.70;5.80;;;;;;;;;;10518818;28;20408;-89
2022/05/31 21:15:46;;;;;;;8.73;6.35;;;;;;;;;;10516278;28;20420;-88
2022/05/31 21:20:52;;;;;;;8.87;6.30;;;;;;;;;;10520348;28;20412;-88
2022/05/31 21:25:56;;;;;;;8.25;6.55;;;;;;;;;;10515260;28;20900;-88
2022/05/31 21:30:58;;;;;;;10.50;6.32;;;;;;;;;;10515678;28;20710;-87
2022/05/31 21:36:02;;;;;;;8.45;6.20;;;;;;;;;;10513703;28;20426;-87
2022/05/31 21:46:21;;;;;;;7.90;5.93;;;;;;;;;;10518199;28;20408;-88
2022/05/31 21:51:25;;;;;;;8.40;6.40;;;;;;;;;;10520542;28;20412;-89
2022/05/31 21:56:35;;;;;;;10.57;6.78;;;;;;;;;;10520215;28;20416;-89
2022/05/31 22:01:37;;;;;;;10.20;6.85;;;;;;;;;;10522890;28;20469;-89
2022/05/31 22:06:40;;;;;;;7.93;6.90;;;;;;;;;;10520939;28;20400;-89
2022/05/31 22:11:42;;;;;;;12.38;6.65;;;;;;;;;;10513449;28;20404;-89
2022/05/31 22:16:44;;;;;;;9.53;7.07;;;;;;;;;;10517934;28;20416;-88
2022/05/31 22:21:48;;;;;;;10.02;7.50;;;;;;;;;;10520712;28;20745;-90
2022/05/31 22:26:50;;;;;;;8.43;7.53;;;;;;;;;;10519362;28;20400;-89
2022/05/31 22:31:52;;;;;;;10.75;7.75;;;;;;;;;;10521302;28;20418;-91
2022/05/31 22:36:56;;;;;;;11.80;7.90;;;;;;;;;;10511547;28;20428;-87
2022/05/31 22:41:58;;;;;;;10.43;7.70;;;;;;;;;;10519308;28;20396;-89
2022/05/31 22:47:00;;;;;;;13.27;8.57;;;;;;;;;;10527366;28;20403;-86
2022/05/31 22:52:03;;;;;;;13.10;9.03;;;;;;;;;;10526119;28;20968;-89
2022/05/31 22:57:06;;;;;;;10.80;9.18;;;;;;;;;;10530191;28;20422;-90
2022/05/31 23:02:08;;;;;;;11.52;8.98;;;;;;;;;;10528175;28;20883;-90
2022/05/31 23:07:14;;;;;;;12.48;9.07;;;;;;;;;;10530154;28;20483;-90
2022/05/31 23:12:15;;;;;;;12.00;9.53;;;;;;;;;;10529714;28;20483;-88
2022/05/31 23:17:18;;;;;;;11.63;9.30;;;;;;;;;;10537984;28;20550;-88
2022/05/31 23:27:43;;;;;;;12.18;8.80;;;;;;;;;;10529280;28;20388;-88
2022/05/31 23:32:44;;;;;;;11.90;8.90;;;;;;;;;;10523236;28;20412;-88
2022/05/31 23:37:48;;;;;;;13.63;9.73;;;;;;;;;;10523951;28;20926;-88
2022/05/31 23:42:49;;;;;;;16.75;9.88;;;;;;;;;;10515544;28;20760;-89
2022/05/31 23:47:51;;;;;;;13.65;10.75;;;;;;;;;;10527771;28;20431;-90
2022/05/31 23:52:55;;;;;;;13.90;10.68;;;;;;;;;;10527515;28;20412;-89
2022/05/31 23:57:56;;;;;;;13.32;10.27;;;;;;;;;;10513195;28;20420;-89
